sensor_id;sensor_type;location;lat;lon;timestamp;pressure;altitude;pressure_sealevel;temperature;humidity
48424;BME280;34232;42.502;26.014;2022-12-10T00:01:43;99666.22;;;8.75;91.61
48424;BME280;34232;42.502;26.014;2022-12-10T00:04:10;99673.16;;;8.65;92.43
48424;BME280;34232;42.502;26.014;2022-12-10T00:06:37;99670.16;;;8.69;92.31
48424;BME280;34232;42.502;26.014;2022-12-10T00:09:04;99662.19;;;8.71;92.79
48424;BME280;34232;42.502;26.014;2022-12-10T00:11:30;99665.53;;;8.62;93.09
48424;BME280;34232;42.502;26.014;2022-12-10T00:13:56;99665.75;;;8.70;93.49
48424;BME280;34232;42.502;26.014;2022-12-10T00:16:24;99662.50;;;8.77;93.13
48424;BME280;34232;42.502;26.014;2022-12-10T00:18:50;99661.19;;;8.83;93.41
48424;BME280;34232;42.502;26.014;2022-12-10T00:21:19;99667.19;;;8.74;94.80
48424;BME280;34232;42.502;26.014;2022-12-10T00:23:45;99652.00;;;8.77;94.80
48424;BME280;34232;42.502;26.014;2022-12-10T00:26:19;99662.66;;;8.65;95.60
48424;BME280;34232;42.502;26.014;2022-12-10T00:28:48;99679.41;;;8.53;97.97
48424;BME280;34232;42.502;26.014;2022-12-10T00:31:23;99668.44;;;8.59;98.36
48424;BME280;34232;42.502;26.014;2022-12-10T00:33:49;99676.50;;;8.67;98.63
48424;BME280;34232;42.502;26.014;2022-12-10T00:36:18;99671.22;;;8.78;97.74
48424;BME280;34232;42.502;26.014;2022-12-10T00:38:44;99681.91;;;8.54;97.10
48424;BME280;34232;42.502;26.014;2022-12-10T00:41:11;99664.25;;;8.56;99.26
48424;BME280;34232;42.502;26.014;2022-12-10T00:43:37;99670.34;;;8.57;98.82
48424;BME280;34232;42.502;26.014;2022-12-10T00:46:02;99660.91;;;8.54;98.36
48424;BME280;34232;42.502;26.014;2022-12-10T00:48:28;99657.66;;;8.62;98.35
48424;BME280;34232;42.502;26.014;2022-12-10T00:50:59;99659.09;;;8.66;97.50
48424;BME280;34232;42.502;26.014;2022-12-10T00:53:26;99661.59;;;8.67;97.46
48424;BME280;34232;42.502;26.014;2022-12-10T00:55:52;99662.22;;;8.60;96.73
48424;BME280;34232;42.502;26.014;2022-12-10T00:58:18;99661.94;;;8.63;96.60
48424;BME280;34232;42.502;26.014;2022-12-10T01:00:43;99655.97;;;8.72;96.92
48424;BME280;34232;42.502;26.014;2022-12-10T01:03:09;99662.66;;;8.76;96.26
48424;BME280;34232;42.502;26.014;2022-12-10T01:05:34;99642.13;;;8.70;96.06
48424;BME280;34232;42.502;26.014;2022-12-10T01:07:59;99658.66;;;8.82;95.61
48424;BME280;34232;42.502;26.014;2022-12-10T01:10:25;99655.34;;;8.80;94.10
48424;BME280;34232;42.502;26.014;2022-12-10T01:12:50;99641.44;;;8.68;94.22
48424;BME280;34232;42.502;26.014;2022-12-10T01:15:16;99646.44;;;8.71;93.91
48424;BME280;34232;42.502;26.014;2022-12-10T01:17:41;99640.22;;;8.72;93.83
48424;BME280;34232;42.502;26.014;2022-12-10T01:20:07;99652.84;;;8.78;93.10
48424;BME280;34232;42.502;26.014;2022-12-10T01:22:32;99656.69;;;8.74;93.05
48424;BME280;34232;42.502;26.014;2022-12-10T01:24:57;99660.03;;;8.76;93.10
48424;BME280;34232;42.502;26.014;2022-12-10T01:27:23;99643.56;;;8.74;92.57
48424;BME280;34232;42.502;26.014;2022-12-10T01:29:48;99656.00;;;8.61;93.55
48424;BME280;34232;42.502;26.014;2022-12-10T01:32:14;99644.19;;;8.66;94.12
48424;BME280;34232;42.502;26.014;2022-12-10T01:34:39;99644.06;;;8.68;94.24
48424;BME280;34232;42.502;26.014;2022-12-10T01:37:05;99641.66;;;8.76;94.30
48424;BME280;34232;42.502;26.014;2022-12-10T01:39:30;99632.13;;;8.75;94.47
48424;BME280;34232;42.502;26.014;2022-12-10T01:41:59;99639.94;;;8.86;94.37
48424;BME280;34232;42.502;26.014;2022-12-10T01:46:55;99635.66;;;8.85;94.25
48424;BME280;34232;42.502;26.014;2022-12-10T01:49:24;99640.53;;;8.47;94.68
48424;BME280;34232;42.502;26.014;2022-12-10T01:51:54;99631.09;;;8.55;96.42
48424;BME280;34232;42.502;26.014;2022-12-10T01:54:26;99635.63;;;8.53;96.55
48424;BME280;34232;42.502;26.014;2022-12-10T01:57:02;99625.75;;;8.46;98.29
48424;BME280;34232;42.502;26.014;2022-12-10T01:59:29;99633.25;;;8.50;98.38
48424;BME280;34232;42.502;26.014;2022-12-10T02:02:07;99627.16;;;8.50;99.17
48424;BME280;34232;42.502;26.014;2022-12-10T02:10:59;99630.94;;;8.68;99.42
48424;BME280;34232;42.502;26.014;2022-12-10T02:13:42;99640.94;;;8.74;98.85
48424;BME280;34232;42.502;26.014;2022-12-10T02:16:41;99619.66;;;8.88;98.54
48424;BME280;34232;42.502;26.014;2022-12-10T02:19:24;99609.56;;;8.93;98.04
48424;BME280;34232;42.502;26.014;2022-12-10T02:21:52;99613.09;;;8.83;97.67
48424;BME280;34232;42.502;26.014;2022-12-10T02:24:24;99614.66;;;8.85;97.91
48424;BME280;34232;42.502;26.014;2022-12-10T02:27:01;99611.06;;;8.86;97.17
48424;BME280;34232;42.502;26.014;2022-12-10T02:29:29;99614.16;;;8.59;98.76
48424;BME280;34232;42.502;26.014;2022-12-10T02:32:10;99596.16;;;8.55;99.04
48424;BME280;34232;42.502;26.014;2022-12-10T02:34:43;99605.94;;;8.53;99.34
48424;BME280;34232;42.502;26.014;2022-12-10T02:37:15;99591.63;;;8.57;99.26
48424;BME280;34232;42.502;26.014;2022-12-10T02:39:46;99599.19;;;8.71;99.15
48424;BME280;34232;42.502;26.014;2022-12-10T02:42:15;99589.59;;;8.81;98.37
48424;BME280;34232;42.502;26.014;2022-12-10T02:44:42;99591.97;;;8.84;97.50
48424;BME280;34232;42.502;26.014;2022-12-10T02:47:10;99588.19;;;8.77;96.63
48424;BME280;34232;42.502;26.014;2022-12-10T02:49:39;99586.53;;;8.76;96.76
48424;BME280;34232;42.502;26.014;2022-12-10T02:52:12;99579.34;;;8.78;96.47
48424;BME280;34232;42.502;26.014;2022-12-10T02:54:45;99591.53;;;8.79;96.11
48424;BME280;34232;42.502;26.014;2022-12-10T03:08:07;99589.34;;;8.84;94.54
48424;BME280;34232;42.502;26.014;2022-12-10T03:10:41;99588.72;;;8.71;93.99
48424;BME280;34232;42.502;26.014;2022-12-10T03:13:11;99587.94;;;8.80;94.35
48424;BME280;34232;42.502;26.014;2022-12-10T03:15:40;99584.34;;;8.81;93.56
48424;BME280;34232;42.502;26.014;2022-12-10T03:18:08;99584.59;;;8.78;93.00
48424;BME280;34232;42.502;26.014;2022-12-10T03:20:40;99574.25;;;8.76;92.49
48424;BME280;34232;42.502;26.014;2022-12-10T03:23:10;99579.22;;;8.59;92.03
48424;BME280;34232;42.502;26.014;2022-12-10T03:25:38;99576.97;;;8.54;92.50
48424;BME280;34232;42.502;26.014;2022-12-10T03:28:04;99579.72;;;8.53;92.81
48424;BME280;34232;42.502;26.014;2022-12-10T03:30:32;99584.25;;;8.51;92.84
48424;BME280;34232;42.502;26.014;2022-12-10T03:32:58;99581.63;;;8.51;92.61
48424;BME280;34232;42.502;26.014;2022-12-10T03:35:24;99587.59;;;8.53;93.25
48424;BME280;34232;42.502;26.014;2022-12-10T03:37:50;99584.97;;;8.53;93.28
48424;BME280;34232;42.502;26.014;2022-12-10T03:40:20;99583.75;;;8.57;93.53
48424;BME280;34232;42.502;26.014;2022-12-10T03:42:49;99582.53;;;8.61;92.68
48424;BME280;34232;42.502;26.014;2022-12-10T03:45:15;99581.56;;;8.62;92.87
48424;BME280;34232;42.502;26.014;2022-12-10T03:47:41;99580.63;;;8.63;92.85
48424;BME280;34232;42.502;26.014;2022-12-10T03:50:07;99582.22;;;8.54;93.27
48424;BME280;34232;42.502;26.014;2022-12-10T03:52:33;99575.19;;;8.55;94.23
48424;BME280;34232;42.502;26.014;2022-12-10T03:54:58;99572.56;;;8.55;92.92
48424;BME280;34232;42.502;26.014;2022-12-10T03:57:24;99574.47;;;8.53;92.07
48424;BME280;34232;42.502;26.014;2022-12-10T03:59:49;99568.75;;;8.48;92.46
48424;BME280;34232;42.502;26.014;2022-12-10T04:02:15;99562.56;;;8.49;93.15
48424;BME280;34232;42.502;26.014;2022-12-10T04:04:40;99555.63;;;8.48;93.04
48424;BME280;34232;42.502;26.014;2022-12-10T04:07:05;99548.47;;;8.50;93.45
48424;BME280;34232;42.502;26.014;2022-12-10T04:09:31;99558.97;;;8.50;93.64
48424;BME280;34232;42.502;26.014;2022-12-10T04:11:58;99546.56;;;8.52;93.61
48424;BME280;34232;42.502;26.014;2022-12-10T04:14:23;99553.47;;;8.53;93.80
48424;BME280;34232;42.502;26.014;2022-12-10T04:17:07;99547.22;;;8.44;93.32
48424;BME280;34232;42.502;26.014;2022-12-10T04:19:33;99550.63;;;8.45;93.11
48424;BME280;34232;42.502;26.014;2022-12-10T04:21:58;99544.97;;;8.39;93.46
48424;BME280;34232;42.502;26.014;2022-12-10T04:24:42;99548.53;;;8.38;93.21
48424;BME280;34232;42.502;26.014;2022-12-10T04:29:54;99550.19;;;8.39;93.78
48424;BME280;34232;42.502;26.014;2022-12-10T04:32:20;99560.56;;;8.41;93.91
48424;BME280;34232;42.502;26.014;2022-12-10T04:34:46;99556.03;;;8.43;94.61
48424;BME280;34232;42.502;26.014;2022-12-10T04:37:12;99555.75;;;8.46;94.96
48424;BME280;34232;42.502;26.014;2022-12-10T04:39:38;99545.72;;;8.51;94.37
48424;BME280;34232;42.502;26.014;2022-12-10T04:42:03;99541.91;;;8.55;93.77
48424;BME280;34232;42.502;26.014;2022-12-10T04:44:29;99551.94;;;8.50;93.77
48424;BME280;34232;42.502;26.014;2022-12-10T04:46:55;99555.63;;;8.48;94.24
48424;BME280;34232;42.502;26.014;2022-12-10T04:49:21;99546.81;;;8.49;94.53
48424;BME280;34232;42.502;26.014;2022-12-10T04:51:47;99558.72;;;8.53;95.02
48424;BME280;34232;42.502;26.014;2022-12-10T04:54:13;99553.47;;;8.53;94.36
48424;BME280;34232;42.502;26.014;2022-12-10T04:56:39;99530.84;;;8.52;94.50
48424;BME280;34232;42.502;26.014;2022-12-10T04:59:06;99530.47;;;8.56;94.57
48424;BME280;34232;42.502;26.014;2022-12-10T05:01:32;99537.38;;;8.57;94.78
48424;BME280;34232;42.502;26.014;2022-12-10T05:04:00;99533.66;;;8.60;95.43
48424;BME280;34232;42.502;26.014;2022-12-10T05:06:26;99536.72;;;8.65;95.39
48424;BME280;34232;42.502;26.014;2022-12-10T05:08:52;99530.28;;;8.69;95.41
48424;BME280;34232;42.502;26.014;2022-12-10T05:11:20;99514.06;;;8.64;95.18
48424;BME280;34232;42.502;26.014;2022-12-10T05:13:46;99528.34;;;8.71;96.04
48424;BME280;34232;42.502;26.014;2022-12-10T05:16:16;99532.66;;;8.72;95.74
48424;BME280;34232;42.502;26.014;2022-12-10T05:18:43;99527.41;;;8.72;95.95
48424;BME280;34232;42.502;26.014;2022-12-10T05:21:13;99537.66;;;8.75;95.87
48424;BME280;34232;42.502;26.014;2022-12-10T05:23:42;99545.25;;;8.78;95.38
48424;BME280;34232;42.502;26.014;2022-12-10T05:26:21;99550.56;;;8.88;95.37
48424;BME280;34232;42.502;26.014;2022-12-10T05:28:56;99553.06;;;8.89;95.25
48424;BME280;34232;42.502;26.014;2022-12-10T05:31:25;99552.81;;;8.92;95.49
48424;BME280;34232;42.502;26.014;2022-12-10T05:33:51;99549.66;;;8.98;95.56
48424;BME280;34232;42.502;26.014;2022-12-10T05:36:19;99545.94;;;9.01;95.70
48424;BME280;34232;42.502;26.014;2022-12-10T05:38:44;99549.09;;;8.95;95.96
48424;BME280;34232;42.502;26.014;2022-12-10T05:41:18;99549.91;;;8.95;96.43
48424;BME280;34232;42.502;26.014;2022-12-10T05:43:45;99542.13;;;8.84;97.04
48424;BME280;34232;42.502;26.014;2022-12-10T05:46:16;99534.25;;;8.84;96.97
48424;BME280;34232;42.502;26.014;2022-12-10T05:48:41;99544.88;;;8.83;97.09
48424;BME280;34232;42.502;26.014;2022-12-10T05:51:12;99545.69;;;8.83;97.86
48424;BME280;34232;42.502;26.014;2022-12-10T05:53:39;99539.63;;;8.83;98.18
48424;BME280;34232;42.502;26.014;2022-12-10T05:56:10;99546.53;;;8.84;98.34
48424;BME280;34232;42.502;26.014;2022-12-10T05:58:37;99535.06;;;8.64;99.59
48424;BME280;34232;42.502;26.014;2022-12-10T06:01:14;99540.44;;;8.83;99.75
48424;BME280;34232;42.502;26.014;2022-12-10T06:03:40;99540.69;;;8.80;99.66
48424;BME280;34232;42.502;26.014;2022-12-10T06:06:06;99528.03;;;8.85;99.71
48424;BME280;34232;42.502;26.014;2022-12-10T06:08:32;99534.25;;;8.84;99.99
48424;BME280;34232;42.502;26.014;2022-12-10T06:11:02;99515.25;;;8.92;99.98
48424;BME280;34232;42.502;26.014;2022-12-10T06:13:28;99532.19;;;9.08;99.76
48424;BME280;34232;42.502;26.014;2022-12-10T06:15:53;99545.38;;;9.18;99.63
48424;BME280;34232;42.502;26.014;2022-12-10T06:18:19;99537.09;;;9.23;99.18
48424;BME280;34232;42.502;26.014;2022-12-10T06:20:44;99536.81;;;9.26;98.38
48424;BME280;34232;42.502;26.014;2022-12-10T06:23:09;99537.97;;;9.33;97.86
48424;BME280;34232;42.502;26.014;2022-12-10T06:25:38;99539.31;;;9.27;97.81
48424;BME280;34232;42.502;26.014;2022-12-10T06:28:04;99549.28;;;9.24;98.01
48424;BME280;34232;42.502;26.014;2022-12-10T06:30:29;99546.97;;;9.09;98.43
48424;BME280;34232;42.502;26.014;2022-12-10T06:32:55;99555.53;;;9.11;98.94
48424;BME280;34232;42.502;26.014;2022-12-10T06:35:20;99545.44;;;8.86;100.00
48424;BME280;34232;42.502;26.014;2022-12-10T06:37:46;99543.28;;;8.91;100.00
48424;BME280;34232;42.502;26.014;2022-12-10T06:40:11;99546.91;;;8.79;100.00
48424;BME280;34232;42.502;26.014;2022-12-10T06:42:37;99548.13;;;8.75;100.00
48424;BME280;34232;42.502;26.014;2022-12-10T06:45:02;99540.00;;;8.78;100.00
48424;BME280;34232;42.502;26.014;2022-12-10T06:47:28;99556.66;;;8.88;100.00
48424;BME280;34232;42.502;26.014;2022-12-10T06:49:53;99543.44;;;8.99;100.00
48424;BME280;34232;42.502;26.014;2022-12-10T06:52:18;99540.06;;;9.08;100.00
48424;BME280;34232;42.502;26.014;2022-12-10T06:54:44;99529.22;;;9.23;100.00
48424;BME280;34232;42.502;26.014;2022-12-10T06:57:10;99522.59;;;9.28;100.00
48424;BME280;34232;42.502;26.014;2022-12-10T06:59:35;99532.50;;;9.45;100.00
48424;BME280;34232;42.502;26.014;2022-12-10T07:02:01;99541.41;;;9.54;100.00
48424;BME280;34232;42.502;26.014;2022-12-10T07:04:27;99543.91;;;9.65;99.81
48424;BME280;34232;42.502;26.014;2022-12-10T07:06:52;99534.81;;;9.69;99.69
48424;BME280;34232;42.502;26.014;2022-12-10T07:09:18;99535.91;;;9.76;99.56
48424;BME280;34232;42.502;26.014;2022-12-10T07:11:43;99538.03;;;9.82;99.27
48424;BME280;34232;42.502;26.014;2022-12-10T07:14:16;99520.72;;;9.80;99.68
48424;BME280;34232;42.502;26.014;2022-12-10T07:16:41;99519.50;;;9.94;99.44
48424;BME280;34232;42.502;26.014;2022-12-10T07:19:09;99520.47;;;9.93;98.89
48424;BME280;34232;42.502;26.014;2022-12-10T07:21:36;99519.94;;;9.99;99.51
48424;BME280;34232;42.502;26.014;2022-12-10T07:24:04;99526.31;;;10.06;99.31
48424;BME280;34232;42.502;26.014;2022-12-10T07:26:32;99524.78;;;10.13;99.64
48424;BME280;34232;42.502;26.014;2022-12-10T07:29:00;99543.28;;;10.32;98.93
48424;BME280;34232;42.502;26.014;2022-12-10T07:31:26;99535.38;;;10.42;98.68
48424;BME280;34232;42.502;26.014;2022-12-10T07:33:53;99544.38;;;10.39;98.04
48424;BME280;34232;42.502;26.014;2022-12-10T07:36:20;99537.47;;;10.38;98.12
48424;BME280;34232;42.502;26.014;2022-12-10T07:38:47;99526.09;;;10.47;97.88
48424;BME280;34232;42.502;26.014;2022-12-10T07:41:13;99530.81;;;10.54;97.94
48424;BME280;34232;42.502;26.014;2022-12-10T07:43:41;99525.13;;;10.58;97.21
48424;BME280;34232;42.502;26.014;2022-12-10T07:46:14;99521.66;;;10.48;96.42
48424;BME280;34232;42.502;26.014;2022-12-10T07:48:44;99528.31;;;10.62;96.86
48424;BME280;34232;42.502;26.014;2022-12-10T07:51:10;99510.84;;;10.61;96.81
48424;BME280;34232;42.502;26.014;2022-12-10T07:53:36;99522.88;;;10.73;96.55
48424;BME280;34232;42.502;26.014;2022-12-10T07:56:02;99521.91;;;10.83;97.63
48424;BME280;34232;42.502;26.014;2022-12-10T07:58:28;99502.50;;;10.94;97.48
48424;BME280;34232;42.502;26.014;2022-12-10T08:00:54;99516.88;;;11.09;97.25
48424;BME280;34232;42.502;26.014;2022-12-10T08:03:19;99513.53;;;11.17;98.82
48424;BME280;34232;42.502;26.014;2022-12-10T08:05:45;99488.94;;;11.26;97.47
48424;BME280;34232;42.502;26.014;2022-12-10T08:08:10;99503.66;;;11.56;97.43
48424;BME280;34232;42.502;26.014;2022-12-10T08:10:36;99496.41;;;11.68;95.83
48424;BME280;34232;42.502;26.014;2022-12-10T08:13:02;99504.66;;;11.82;94.96
48424;BME280;34232;42.502;26.014;2022-12-10T08:15:28;99504.00;;;11.98;94.63
48424;BME280;34232;42.502;26.014;2022-12-10T08:17:54;99486.44;;;12.07;93.60
48424;BME280;34232;42.502;26.014;2022-12-10T08:20:20;99483.66;;;12.08;93.41
48424;BME280;34232;42.502;26.014;2022-12-10T08:22:46;99493.69;;;12.22;92.56
48424;BME280;34232;42.502;26.014;2022-12-10T08:25:11;99494.06;;;12.27;93.03
48424;BME280;34232;42.502;26.014;2022-12-10T08:27:37;99490.59;;;12.45;91.21
48424;BME280;34232;42.502;26.014;2022-12-10T08:30:03;99488.84;;;12.53;90.45
48424;BME280;34232;42.502;26.014;2022-12-10T08:32:28;99479.66;;;12.57;90.40
48424;BME280;34232;42.502;26.014;2022-12-10T08:34:54;99483.09;;;12.76;90.38
48424;BME280;34232;42.502;26.014;2022-12-10T08:37:20;99480.31;;;12.77;90.13
48424;BME280;34232;42.502;26.014;2022-12-10T08:39:45;99475.84;;;12.78;89.72
48424;BME280;34232;42.502;26.014;2022-12-10T08:42:11;99466.88;;;12.71;90.10
48424;BME280;34232;42.502;26.014;2022-12-10T08:44:36;99474.09;;;12.69;89.73
48424;BME280;34232;42.502;26.014;2022-12-10T08:47:04;99476.44;;;12.72;91.12
48424;BME280;34232;42.502;26.014;2022-12-10T08:49:30;99477.09;;;12.91;91.24
48424;BME280;34232;42.502;26.014;2022-12-10T08:51:56;99463.72;;;12.93;90.21
48424;BME280;34232;42.502;26.014;2022-12-10T08:54:21;99469.09;;;13.09;90.90
48424;BME280;34232;42.502;26.014;2022-12-10T08:56:46;99463.94;;;13.25;90.40
48424;BME280;34232;42.502;26.014;2022-12-10T08:59:12;99458.34;;;13.28;90.87
48424;BME280;34232;42.502;26.014;2022-12-10T09:01:38;99456.16;;;13.24;91.49
48424;BME280;34232;42.502;26.014;2022-12-10T09:04:03;99454.06;;;13.36;91.85
48424;BME280;34232;42.502;26.014;2022-12-10T09:06:29;99451.09;;;13.30;92.70
48424;BME280;34232;42.502;26.014;2022-12-10T09:08:55;99457.94;;;13.57;93.78
48424;BME280;34232;42.502;26.014;2022-12-10T09:11:24;99455.88;;;13.77;91.94
48424;BME280;34232;42.502;26.014;2022-12-10T09:13:50;99448.94;;;13.84;91.20
48424;BME280;34232;42.502;26.014;2022-12-10T09:16:16;99433.41;;;14.14;91.08
48424;BME280;34232;42.502;26.014;2022-12-10T09:18:41;99429.13;;;14.37;88.54
48424;BME280;34232;42.502;26.014;2022-12-10T09:21:09;99431.16;;;14.59;87.37
48424;BME280;34232;42.502;26.014;2022-12-10T09:23:35;99432.41;;;14.88;86.04
48424;BME280;34232;42.502;26.014;2022-12-10T09:26:00;99419.09;;;15.12;85.08
48424;BME280;34232;42.502;26.014;2022-12-10T09:28:26;99414.44;;;15.22;82.44
48424;BME280;34232;42.502;26.014;2022-12-10T09:30:59;99409.72;;;15.32;83.11
48424;BME280;34232;42.502;26.014;2022-12-10T09:33:26;99403.53;;;15.48;81.35
48424;BME280;34232;42.502;26.014;2022-12-10T09:35:51;99396.22;;;15.58;80.41
48424;BME280;34232;42.502;26.014;2022-12-10T09:38:17;99394.28;;;15.75;80.02
48424;BME280;34232;42.502;26.014;2022-12-10T09:41:01;99388.16;;;15.97;78.98
48424;BME280;34232;42.502;26.014;2022-12-10T09:43:49;99372.41;;;16.19;78.57
48424;BME280;34232;42.502;26.014;2022-12-10T09:46:45;99378.06;;;16.53;77.25
48424;BME280;34232;42.502;26.014;2022-12-10T09:51:54;99360.13;;;16.99;75.16
48424;BME280;34232;42.502;26.014;2022-12-10T09:54:28;99358.09;;;17.16;73.82
48424;BME280;34232;42.502;26.014;2022-12-10T09:56:55;99357.41;;;17.43;73.03
48424;BME280;34232;42.502;26.014;2022-12-10T09:59:30;99355.69;;;17.57;72.44
48424;BME280;34232;42.502;26.014;2022-12-10T10:04:28;99349.56;;;17.57;70.43
48424;BME280;34232;42.502;26.014;2022-12-10T10:06:54;99339.72;;;17.72;70.34
48424;BME280;34232;42.502;26.014;2022-12-10T10:09:20;99335.81;;;17.68;69.80
48424;BME280;34232;42.502;26.014;2022-12-10T10:11:46;99327.03;;;17.74;69.58
48424;BME280;34232;42.502;26.014;2022-12-10T10:14:18;99332.63;;;17.79;69.81
48424;BME280;34232;42.502;26.014;2022-12-10T10:16:51;99323.94;;;17.92;68.51
48424;BME280;34232;42.502;26.014;2022-12-10T10:19:31;99334.66;;;17.98;68.79
48424;BME280;34232;42.502;26.014;2022-12-10T10:22:03;99324.66;;;18.07;68.36
48424;BME280;34232;42.502;26.014;2022-12-10T10:24:37;99312.09;;;18.22;67.52
48424;BME280;34232;42.502;26.014;2022-12-10T10:27:19;99321.59;;;18.31;66.96
48424;BME280;34232;42.502;26.014;2022-12-10T10:29:48;99316.28;;;18.38;66.92
48424;BME280;34232;42.502;26.014;2022-12-10T10:32:21;99314.75;;;18.50;66.49
48424;BME280;34232;42.502;26.014;2022-12-10T10:34:53;99302.28;;;18.57;66.10
48424;BME280;34232;42.502;26.014;2022-12-10T10:37:27;99300.72;;;18.69;65.63
48424;BME280;34232;42.502;26.014;2022-12-10T10:39:54;99293.97;;;18.67;64.82
48424;BME280;34232;42.502;26.014;2022-12-10T10:42:27;99297.94;;;18.49;65.24
48424;BME280;34232;42.502;26.014;2022-12-10T10:44:53;99291.94;;;18.13;66.59
48424;BME280;34232;42.502;26.014;2022-12-10T10:47:30;99285.88;;;18.26;67.38
48424;BME280;34232;42.502;26.014;2022-12-10T10:49:56;99285.75;;;18.34;67.01
48424;BME280;34232;42.502;26.014;2022-12-10T10:52:22;99284.31;;;18.38;66.54
48424;BME280;34232;42.502;26.014;2022-12-10T10:54:49;99277.25;;;18.24;66.74
48424;BME280;34232;42.502;26.014;2022-12-10T10:57:50;99267.72;;;18.08;67.49
48424;BME280;34232;42.502;26.014;2022-12-10T11:00:20;99268.38;;;17.89;67.49
48424;BME280;34232;42.502;26.014;2022-12-10T11:02:47;99276.81;;;17.49;69.48
48424;BME280;34232;42.502;26.014;2022-12-10T11:05:24;99269.03;;;17.48;69.94
48424;BME280;34232;42.502;26.014;2022-12-10T11:07:59;99268.38;;;17.46;71.10
48424;BME280;34232;42.502;26.014;2022-12-10T11:10:25;99261.78;;;17.42;71.78
48424;BME280;34232;42.502;26.014;2022-12-10T11:13:26;99263.13;;;17.31;71.72
48424;BME280;34232;42.502;26.014;2022-12-10T11:15:59;99266.72;;;17.24;72.75
48424;BME280;34232;42.502;26.014;2022-12-10T11:18:41;99262.16;;;17.39;72.75
48424;BME280;34232;42.502;26.014;2022-12-10T11:23:41;99266.81;;;17.52;70.73
48424;BME280;34232;42.502;26.014;2022-12-10T11:31:40;99238.81;;;17.77;68.34
48424;BME280;34232;42.502;26.014;2022-12-10T11:34:35;99242.53;;;17.82;68.68
48424;BME280;34232;42.502;26.014;2022-12-10T11:48:14;99223.72;;;17.84;67.65
48424;BME280;34232;42.502;26.014;2022-12-10T11:50:53;99227.66;;;17.67;68.02
48424;BME280;34232;42.502;26.014;2022-12-10T11:56:24;99221.06;;;17.41;70.45
48424;BME280;34232;42.502;26.014;2022-12-10T12:09:02;99209.91;;;17.10;72.29
48424;BME280;34232;42.502;26.014;2022-12-10T12:14:36;99208.78;;;17.19;71.61
48424;BME280;34232;42.502;26.014;2022-12-10T12:17:06;99194.50;;;17.27;71.65
48424;BME280;34232;42.502;26.014;2022-12-10T12:19:37;99203.88;;;17.23;71.08
48424;BME280;34232;42.502;26.014;2022-12-10T12:22:43;99196.63;;;17.31;70.63
48424;BME280;34232;42.502;26.014;2022-12-10T12:25:29;99172.78;;;17.23;70.96
48424;BME280;34232;42.502;26.014;2022-12-10T12:28:02;99173.75;;;17.37;70.95
48424;BME280;34232;42.502;26.014;2022-12-10T12:30:31;99170.66;;;17.33;71.94
48424;BME280;34232;42.502;26.014;2022-12-10T12:33:04;99170.56;;;17.27;71.76
48424;BME280;34232;42.502;26.014;2022-12-10T12:35:43;99159.88;;;17.20;72.15
48424;BME280;34232;42.502;26.014;2022-12-10T12:43:28;99155.59;;;17.19;72.37
48424;BME280;34232;42.502;26.014;2022-12-10T12:45:56;99148.91;;;17.08;73.00
48424;BME280;34232;42.502;26.014;2022-12-10T12:51:05;99140.75;;;17.10;72.48
48424;BME280;34232;42.502;26.014;2022-12-10T12:53:34;99140.13;;;17.08;72.34
48424;BME280;34232;42.502;26.014;2022-12-10T12:59:10;99140.81;;;17.17;72.95
48424;BME280;34232;42.502;26.014;2022-12-10T13:01:43;99143.53;;;17.23;71.71
48424;BME280;34232;42.502;26.014;2022-12-10T13:04:17;99150.13;;;17.27;71.91
48424;BME280;34232;42.502;26.014;2022-12-10T13:09:51;99159.47;;;17.23;71.63
48424;BME280;34232;42.502;26.014;2022-12-10T13:13:16;99167.09;;;17.26;71.47
48424;BME280;34232;42.502;26.014;2022-12-10T13:15:46;99162.78;;;17.25;71.51
48424;BME280;34232;42.502;26.014;2022-12-10T13:20:49;99162.16;;;17.23;71.17
48424;BME280;34232;42.502;26.014;2022-12-10T13:36:36;99144.69;;;17.35;72.31
48424;BME280;34232;42.502;26.014;2022-12-10T13:41:34;99131.50;;;17.27;73.47
48424;BME280;34232;42.502;26.014;2022-12-10T13:44:32;99138.91;;;17.32;73.23
48424;BME280;34232;42.502;26.014;2022-12-10T13:49:28;99136.44;;;17.30;72.92
48424;BME280;34232;42.502;26.014;2022-12-10T13:52:03;99134.78;;;17.29;73.08
48424;BME280;34232;42.502;26.014;2022-12-10T13:57:46;99141.47;;;17.19;74.10
48424;BME280;34232;42.502;26.014;2022-12-10T14:00:23;99138.34;;;17.15;74.12
48424;BME280;34232;42.502;26.014;2022-12-10T14:03:12;99145.69;;;17.13;74.25
48424;BME280;34232;42.502;26.014;2022-12-10T14:08:20;99147.22;;;17.01;74.86
48424;BME280;34232;42.502;26.014;2022-12-10T14:10:49;99156.22;;;17.00;75.01
48424;BME280;34232;42.502;26.014;2022-12-10T14:13:16;99156.22;;;17.00;74.91
48424;BME280;34232;42.502;26.014;2022-12-10T14:15:53;99149.63;;;16.96;75.52
48424;BME280;34232;42.502;26.014;2022-12-10T14:18:21;99143.22;;;16.90;75.35
48424;BME280;34232;42.502;26.014;2022-12-10T14:20:52;99129.88;;;16.84;75.25
48424;BME280;34232;42.502;26.014;2022-12-10T14:25:58;99132.84;;;16.59;75.90
48424;BME280;34232;42.502;26.014;2022-12-10T14:28:29;99124.16;;;16.51;76.61
48424;BME280;34232;42.502;26.014;2022-12-10T14:30:55;99125.91;;;16.43;77.02
48424;BME280;34232;42.502;26.014;2022-12-10T14:33:22;99115.59;;;16.34;77.60
48424;BME280;34232;42.502;26.014;2022-12-10T14:35:50;99118.97;;;16.28;77.51
48424;BME280;34232;42.502;26.014;2022-12-10T14:38:27;99124.59;;;16.18;77.67
48424;BME280;34232;42.502;26.014;2022-12-10T14:40:55;99127.25;;;16.03;78.81
48424;BME280;34232;42.502;26.014;2022-12-10T14:43:23;99119.00;;;15.98;79.05
48424;BME280;34232;42.502;26.014;2022-12-10T14:45:54;99106.69;;;15.91;79.21
48424;BME280;34232;42.502;26.014;2022-12-10T14:48:21;99107.59;;;15.83;79.21
48424;BME280;34232;42.502;26.014;2022-12-10T14:50:47;99099.09;;;15.73;80.10
48424;BME280;34232;42.502;26.014;2022-12-10T14:53:18;99105.47;;;15.64;80.57